KIZA

Santa Ynez Airport

Santa Ynez, California, USA
METAR KIZA 211535Z AUTO 26007KT 10SM CLR 06/03 A3015 RMK AO2
Observed Flight Rules
Jan-21 @ 15:35 UTC (22 minutes ago) Visual Flight Rules
Wind Visibility Clouds
260° at 7 knots 10 miles
  • Clear skies
Temperatures Readings
Current 6°C / 43°F
Dewpoint 3°C / 37°F
Humidity 81%
Altimeter 30.15" Hg
Pressure 1021.02 hPa
Elevation 205
METAR KIZA 211535Z AUTO 26007KT 10SM CLR 06/03 A3015 RMK AO2
Observed Flight Rules
Jan-21 @ 15:35 UTC
(22 minutes ago)
VFR
Wind Visibility
260° at 7 knots 10 miles
Clouds
  • Clear skies
Temperature Dewpoint
6°C / 43°F 3°C / 37°F
Humidity Altimeter Pressure
81% 30.15" Hg 1021.02 hPa